createdAt,value
2018-11-13T00:02:03.689Z,6.40
2018-11-13T00:04:31.148Z,5.83
2018-11-13T00:06:58.654Z,5.70
2018-11-13T00:09:26.053Z,5.33
2018-11-13T00:11:53.551Z,6.00
2018-11-13T00:14:21.007Z,5.80
2018-11-13T00:16:48.478Z,5.60
2018-11-13T00:19:15.952Z,5.07
2018-11-13T00:21:43.452Z,5.73
2018-11-13T00:24:10.997Z,5.70
2018-11-13T00:26:38.614Z,5.30
2018-11-13T00:29:06.091Z,5.80
2018-11-13T00:31:33.522Z,6.13
2018-11-13T00:34:01.020Z,5.37
2018-11-13T00:36:28.634Z,5.67
2018-11-13T00:38:56.090Z,5.30
2018-11-13T00:41:23.616Z,5.97
2018-11-13T00:43:51.183Z,6.53
2018-11-13T00:46:18.626Z,6.27
2018-11-13T00:48:46.066Z,5.93
2018-11-13T00:51:13.658Z,6.30
2018-11-13T00:53:41.198Z,6.20
2018-11-13T00:56:08.887Z,5.93
2018-11-13T00:58:36.374Z,5.70
2018-11-13T01:01:03.864Z,6.83
2018-11-13T01:03:31.283Z,5.90
2018-11-13T01:05:58.856Z,6.03
2018-11-13T01:08:26.271Z,7.23
2018-11-13T01:10:53.755Z,7.10
2018-11-13T01:13:21.246Z,6.50
2018-11-13T01:15:48.701Z,6.90
2018-11-13T01:18:16.107Z,7.00
2018-11-13T01:20:43.628Z,7.20
2018-11-13T01:23:11.102Z,7.00
2018-11-13T01:25:38.646Z,7.17
2018-11-13T01:28:06.228Z,7.60
2018-11-13T01:30:33.678Z,5.50
2018-11-13T01:33:01.152Z,6.20
2018-11-13T01:35:28.610Z,5.90
2018-11-13T01:37:56.057Z,5.47
2018-11-13T01:40:23.612Z,5.80
2018-11-13T01:42:51.032Z,6.80
2018-11-13T01:45:19.197Z,6.13
2018-11-13T01:47:46.624Z,5.27
2018-11-13T01:50:14.600Z,6.50
2018-11-13T01:52:42.099Z,5.97
2018-11-13T01:55:12.089Z,4.53
2018-11-13T01:57:39.616Z,4.13
2018-11-13T02:00:13.693Z,4.40
2018-11-13T02:02:41.225Z,4.57
2018-11-13T02:05:08.718Z,4.60
2018-11-13T02:07:36.164Z,4.70
2018-11-13T02:10:04.023Z,5.23
2018-11-13T02:12:31.475Z,4.97
2018-11-13T02:14:58.894Z,5.13
2018-11-13T02:17:26.347Z,5.70
2018-11-13T02:19:53.903Z,5.57
2018-11-13T02:22:21.473Z,6.10
2018-11-13T02:24:48.894Z,6.80
2018-11-13T02:27:16.308Z,6.07
2018-11-13T02:29:43.717Z,5.93
2018-11-13T02:32:11.213Z,6.10
2018-11-13T02:34:38.659Z,6.47
2018-11-13T02:37:06.232Z,7.07
2018-11-13T02:39:33.751Z,7.10
2018-11-13T02:42:01.198Z,9.00
2018-11-13T02:44:28.597Z,6.27
2018-11-13T02:46:56.078Z,7.63
2018-11-13T02:49:23.635Z,7.40
2018-11-13T02:51:51.818Z,7.87
2018-11-13T02:54:19.320Z,7.43
2018-11-13T02:56:46.769Z,8.60
2018-11-13T02:59:14.241Z,8.50
2018-11-13T03:01:41.856Z,6.60
2018-11-13T03:04:09.337Z,7.20
2018-11-13T03:06:36.771Z,5.80
2018-11-13T03:09:06.784Z,5.73
2018-11-13T03:11:34.398Z,6.00
2018-11-13T03:14:01.981Z,5.10
2018-11-13T03:16:29.474Z,5.10
2018-11-13T03:18:56.913Z,4.80
2018-11-13T03:21:24.362Z,4.73
2018-11-13T03:23:51.786Z,4.60
2018-11-13T03:26:19.348Z,4.10
2018-11-13T03:28:46.958Z,2.50
2018-11-13T03:31:14.503Z,2.67
2018-11-13T03:33:41.862Z,2.73
2018-11-13T03:36:09.363Z,2.90
2018-11-13T03:38:36.829Z,3.13
2018-11-13T03:41:04.329Z,2.73
2018-11-13T03:43:31.770Z,2.67
2018-11-13T03:45:59.296Z,2.13
2018-11-13T03:48:26.746Z,2.20
2018-11-13T03:50:54.170Z,2.40
2018-11-13T03:53:21.656Z,2.00
2018-11-13T03:55:49.136Z,2.10
2018-11-13T03:58:16.746Z,2.13
2018-11-13T04:00:44.419Z,1.97
2018-11-13T04:03:11.884Z,1.60
2018-11-13T04:05:39.297Z,2.33
2018-11-13T04:08:06.986Z,2.40
2018-11-13T04:10:34.448Z,1.90
2018-11-13T04:13:02.058Z,2.10
2018-11-13T04:15:29.697Z,1.60
2018-11-13T04:17:57.080Z,2.43
2018-11-13T04:20:24.519Z,2.00
2018-11-13T04:22:52.046Z,2.00
2018-11-13T04:25:19.562Z,1.97
2018-11-13T04:27:46.966Z,1.70
2018-11-13T04:30:15.955Z,2.20
2018-11-13T04:32:43.557Z,1.80
2018-11-13T04:35:12.241Z,2.10
2018-11-13T04:37:39.752Z,2.27
2018-11-13T04:40:11.246Z,1.97
2018-11-13T04:42:39.254Z,2.30
2018-11-13T04:45:08.790Z,2.90
2018-11-13T04:47:36.262Z,2.50
2018-11-13T04:50:04.502Z,3.20
2018-11-13T04:52:32.084Z,2.40
2018-11-13T04:54:59.514Z,2.80
2018-11-13T04:57:27.000Z,2.20
2018-11-13T04:59:54.590Z,2.53
2018-11-13T05:02:22.042Z,2.20
2018-11-13T05:04:49.544Z,2.20
2018-11-13T05:07:17.046Z,2.20
2018-11-13T05:09:44.538Z,2.40
2018-11-13T05:12:12.041Z,2.60
2018-11-13T05:14:39.514Z,2.83
2018-11-13T05:17:07.314Z,2.60
2018-11-13T05:19:34.776Z,3.00
2018-11-13T05:22:02.579Z,3.00
2018-11-13T05:24:29.979Z,3.40
2018-11-13T05:26:57.606Z,3.00
2018-11-13T05:29:25.009Z,3.53
2018-11-13T05:31:52.563Z,4.50
2018-11-13T05:34:19.988Z,4.20
2018-11-13T05:36:47.549Z,4.33
2018-11-13T05:39:15.046Z,3.93
2018-11-13T05:41:42.542Z,4.13
2018-11-13T05:44:09.993Z,4.47
2018-11-13T05:46:38.037Z,4.20
2018-11-13T05:49:05.687Z,4.10
2018-11-13T05:51:33.236Z,4.07
2018-11-13T05:54:00.751Z,4.50
2018-11-13T05:56:28.217Z,4.60
2018-11-13T05:58:55.726Z,4.10
2018-11-13T06:01:23.265Z,4.40
2018-11-13T06:03:50.893Z,4.13
2018-11-13T06:06:18.337Z,4.37
2018-11-13T06:08:45.755Z,4.03
2018-11-13T06:11:13.237Z,4.00
2018-11-13T06:13:40.693Z,4.23
2018-11-13T06:16:08.147Z,4.20
2018-11-13T06:18:35.601Z,4.03
2018-11-13T06:21:03.161Z,5.23
2018-11-13T06:23:30.681Z,3.87
2018-11-13T06:25:58.200Z,4.20
2018-11-13T06:28:25.639Z,4.50
2018-11-13T06:30:53.177Z,4.40
2018-11-13T06:33:20.649Z,4.17
2018-11-13T06:35:48.075Z,4.50
2018-11-13T06:38:15.524Z,4.97
2018-11-13T06:40:43.034Z,3.90
2018-11-13T06:43:10.445Z,3.80
2018-11-13T06:45:37.930Z,3.63
2018-11-13T06:48:05.714Z,4.70
2018-11-13T06:50:33.281Z,4.20
2018-11-13T06:53:00.829Z,4.20
2018-11-13T06:55:30.213Z,4.43
2018-11-13T06:57:57.884Z,3.90
2018-11-13T07:00:25.575Z,4.70
2018-11-13T07:02:53.057Z,4.80
2018-11-13T07:05:20.528Z,4.93
2018-11-13T07:07:48.258Z,4.87
2018-11-13T07:10:18.108Z,4.97
2018-11-13T07:12:46.831Z,4.70
2018-11-13T07:15:24.767Z,4.57
2018-11-13T07:17:53.809Z,4.60
2018-11-13T07:20:22.307Z,5.03
2018-11-13T07:22:49.770Z,4.70
2018-11-13T07:25:17.484Z,4.70
2018-11-13T07:27:45.171Z,4.60
2018-11-13T07:30:16.678Z,17.03
2018-11-13T07:32:44.284Z,5.33
2018-11-13T07:35:13.314Z,4.40
2018-11-13T07:37:43.520Z,5.00
2018-11-13T07:40:11.001Z,4.33
2018-11-13T07:42:38.482Z,3.50
2018-11-13T07:45:08.513Z,4.67
2018-11-13T07:47:36.181Z,4.37
2018-11-13T07:50:04.825Z,3.90
2018-11-13T07:52:32.268Z,4.47
2018-11-13T07:54:59.745Z,3.13
2018-11-13T07:57:27.631Z,3.60
2018-11-13T07:59:55.049Z,3.80
2018-11-13T08:02:22.501Z,11.70
2018-11-13T08:04:50.103Z,4.90
2018-11-13T08:07:17.617Z,3.90
2018-11-13T08:09:45.027Z,3.60
2018-11-13T08:12:12.919Z,3.53
2018-11-13T08:14:40.319Z,3.67
2018-11-13T08:17:07.845Z,4.23
2018-11-13T08:19:35.366Z,3.60
2018-11-13T08:22:02.983Z,3.57
2018-11-13T08:24:30.429Z,3.67
2018-11-13T08:26:58.062Z,4.23
2018-11-13T08:29:25.561Z,4.93
2018-11-13T08:31:52.994Z,3.97
2018-11-13T08:34:20.433Z,3.57
2018-11-13T08:36:47.873Z,3.50
2018-11-13T08:39:15.371Z,3.00
2018-11-13T08:41:42.933Z,3.17
2018-11-13T08:44:10.618Z,2.93
2018-11-13T08:46:38.364Z,3.23
2018-11-13T08:49:08.697Z,3.50
2018-11-13T08:51:36.255Z,2.70
2018-11-13T08:54:04.112Z,2.57
2018-11-13T08:56:31.602Z,3.07
2018-11-13T08:58:59.128Z,4.10
2018-11-13T09:01:26.686Z,3.23
2018-11-13T09:03:54.156Z,3.60
2018-11-13T09:06:21.822Z,3.07
2018-11-13T09:08:49.493Z,2.70
2018-11-13T09:11:17.024Z,3.03
2018-11-13T09:13:44.581Z,3.30
2018-11-13T09:16:12.122Z,3.97
2018-11-13T09:18:39.626Z,2.63
2018-11-13T09:21:07.098Z,2.57
2018-11-13T09:23:34.580Z,3.10
2018-11-13T09:26:02.303Z,2.43
2018-11-13T09:28:29.746Z,2.57
2018-11-13T09:30:57.520Z,2.27
2018-11-13T09:33:24.817Z,2.00
2018-11-13T09:35:52.397Z,2.07
2018-11-13T09:38:19.846Z,2.07
2018-11-13T09:40:47.279Z,1.90
2018-11-13T09:43:14.740Z,1.70
2018-11-13T09:45:42.250Z,1.63
2018-11-13T09:48:09.686Z,1.73
2018-11-13T09:50:37.175Z,1.57
2018-11-13T09:53:04.971Z,1.57
2018-11-13T09:55:32.508Z,1.57
2018-11-13T09:57:59.884Z,1.83
2018-11-13T10:00:27.437Z,2.20
2018-11-13T10:02:57.938Z,1.73
2018-11-13T10:05:24.931Z,1.70
2018-11-13T10:07:53.101Z,1.83
2018-11-13T10:10:20.788Z,1.43
2018-11-13T10:12:48.328Z,1.50
2018-11-13T10:15:25.046Z,1.20
2018-11-13T10:17:52.548Z,1.80
2018-11-13T10:20:19.997Z,1.57
2018-11-13T10:22:48.988Z,1.40
2018-11-13T10:25:16.482Z,1.40
2018-11-13T10:27:44.156Z,2.00
2018-11-13T10:30:13.465Z,1.53
2018-11-13T10:32:41.791Z,1.23
2018-11-13T10:35:10.528Z,1.47
2018-11-13T10:37:39.051Z,1.57
2018-11-13T10:40:08.563Z,1.80
2018-11-13T10:42:35.944Z,2.17
2018-11-13T10:45:04.516Z,1.20
2018-11-13T10:47:32.142Z,2.00
2018-11-13T10:49:59.628Z,1.50
2018-11-13T10:52:27.208Z,1.40
2018-11-13T10:54:54.634Z,2.10
2018-11-13T10:57:22.101Z,1.23
2018-11-13T10:59:49.535Z,1.50
2018-11-13T11:02:22.768Z,1.47
2018-11-13T11:04:50.510Z,1.80
2018-11-13T11:07:18.158Z,1.27
2018-11-13T11:09:45.990Z,1.30
2018-11-13T11:12:13.813Z,1.30
2018-11-13T11:14:41.555Z,1.60
2018-11-13T11:17:09.645Z,1.40
2018-11-13T11:19:37.289Z,1.40
2018-11-13T11:22:05.058Z,1.90
2018-11-13T11:24:32.457Z,1.27
2018-11-13T11:26:59.882Z,1.50
2018-11-13T11:29:27.355Z,2.00
2018-11-13T11:31:54.868Z,1.20
2018-11-13T11:34:22.320Z,1.23
2018-11-13T11:36:49.884Z,1.93
2018-11-13T11:39:17.435Z,1.87
2018-11-13T11:41:45.013Z,2.20
2018-11-13T11:44:12.465Z,1.70
2018-11-13T11:46:40.034Z,1.50
2018-11-13T11:49:07.479Z,1.70
2018-11-13T11:51:35.544Z,1.50
2018-11-13T11:54:04.206Z,1.13
2018-11-13T11:56:31.539Z,1.40
2018-11-13T11:58:59.009Z,1.70
2018-11-13T12:01:26.558Z,1.30
2018-11-13T12:03:54.097Z,1.57
2018-11-13T12:06:21.567Z,1.50
2018-11-13T12:08:49.082Z,1.90
2018-11-13T12:11:16.601Z,1.40
2018-11-13T12:13:44.275Z,1.50
2018-11-13T12:16:11.753Z,1.60
2018-11-13T12:18:39.498Z,1.77
2018-11-13T12:21:07.044Z,1.30
2018-11-13T12:23:34.552Z,1.60
2018-11-13T12:26:02.066Z,1.20
2018-11-13T12:28:29.717Z,1.20
2018-11-13T12:30:57.297Z,1.30
2018-11-13T12:33:24.761Z,1.17
2018-11-13T12:35:52.222Z,1.33
2018-11-13T12:38:19.897Z,1.50
2018-11-13T12:40:47.432Z,1.37
2018-11-13T12:43:14.925Z,1.67
2018-11-13T12:45:42.603Z,1.60
2018-11-13T12:48:10.055Z,1.53
2018-11-13T12:50:43.141Z,1.70
2018-11-13T12:53:10.661Z,1.93
2018-11-13T12:55:38.277Z,1.17
2018-11-13T12:58:05.784Z,1.73
2018-11-13T13:00:33.357Z,1.40
2018-11-13T13:03:00.754Z,1.47
2018-11-13T13:05:28.235Z,1.60
2018-11-13T13:07:55.683Z,1.30
2018-11-13T13:10:23.294Z,1.40
2018-11-13T13:12:50.856Z,1.40
2018-11-13T13:15:19.000Z,1.63
2018-11-13T13:17:46.690Z,1.30
2018-11-13T13:20:17.346Z,1.67
2018-11-13T13:22:46.675Z,1.77
2018-11-13T13:25:15.285Z,2.03
2018-11-13T13:27:42.846Z,1.20
2018-11-13T13:30:14.042Z,1.50
2018-11-13T13:32:41.595Z,4.13
2018-11-13T13:35:44.756Z,1.57
2018-11-13T13:38:12.252Z,1.37
2018-11-13T13:40:40.597Z,1.60
2018-11-13T13:43:09.133Z,1.40
2018-11-13T13:45:37.191Z,1.93
2018-11-13T13:48:04.733Z,1.57
2018-11-13T13:50:32.239Z,1.53
2018-11-13T13:52:59.822Z,1.77
2018-11-13T13:55:27.393Z,1.90
2018-11-13T13:57:54.911Z,1.83
2018-11-13T14:00:22.660Z,1.70
2018-11-13T14:02:49.829Z,1.53
2018-11-13T14:05:17.879Z,1.67
2018-11-13T14:07:45.323Z,1.87
2018-11-13T14:10:12.825Z,1.57
2018-11-13T14:12:40.353Z,1.77
2018-11-13T14:15:09.822Z,1.50
2018-11-13T14:17:37.284Z,1.43
2018-11-13T14:20:07.849Z,1.50
2018-11-13T14:22:35.318Z,2.00
2018-11-13T14:25:02.929Z,2.07
2018-11-13T14:27:30.474Z,1.60
2018-11-13T14:29:57.948Z,2.20
2018-11-13T14:32:25.520Z,1.80
2018-11-13T14:34:53.122Z,2.10
2018-11-13T14:37:20.622Z,2.13
2018-11-13T14:39:48.390Z,2.03
2018-11-13T14:42:15.965Z,2.13
2018-11-13T14:44:43.499Z,1.63
2018-11-13T14:47:11.044Z,2.00
2018-11-13T14:49:39.602Z,2.03
2018-11-13T14:52:07.078Z,1.97
2018-11-13T14:54:34.512Z,1.57
2018-11-13T14:57:02.028Z,2.00
2018-11-13T14:59:29.603Z,2.13
2018-11-13T15:01:57.049Z,2.10
2018-11-13T15:04:24.638Z,2.23
2018-11-13T15:06:52.238Z,2.37
2018-11-13T15:09:19.748Z,1.87
2018-11-13T15:11:47.296Z,1.93
2018-11-13T15:14:14.740Z,2.50
2018-11-13T15:16:42.202Z,2.03
2018-11-13T15:19:09.650Z,1.80
2018-11-13T15:21:37.343Z,1.93
2018-11-13T15:24:05.068Z,2.53
2018-11-13T15:26:32.638Z,2.60
2018-11-13T15:29:00.052Z,2.53
2018-11-13T15:31:27.651Z,2.27
2018-11-13T15:33:55.164Z,2.10
2018-11-13T15:36:22.590Z,2.20
2018-11-13T15:38:50.101Z,2.00
2018-11-13T15:41:17.594Z,2.10
2018-11-13T15:43:44.995Z,2.47
2018-11-13T15:46:12.714Z,3.03
2018-11-13T15:48:40.273Z,2.77
2018-11-13T15:51:09.158Z,2.20
2018-11-13T15:53:36.733Z,2.33
2018-11-13T15:56:05.875Z,2.10
2018-11-13T15:58:33.682Z,2.30
2018-11-13T16:01:01.116Z,1.90
2018-11-13T16:03:34.673Z,2.20
2018-11-13T16:06:02.110Z,1.80
2018-11-13T16:08:29.691Z,3.30
2018-11-13T16:10:57.209Z,2.30
2018-11-13T16:13:24.664Z,2.10
2018-11-13T16:15:52.222Z,2.20
2018-11-13T16:18:23.317Z,2.47
2018-11-13T16:20:50.824Z,2.00
2018-11-13T16:23:18.266Z,1.90
2018-11-13T16:25:45.894Z,2.93
2018-11-13T16:28:13.449Z,2.27
2018-11-13T16:30:41.356Z,2.23
2018-11-13T16:33:08.888Z,2.67
2018-11-13T16:35:36.438Z,2.13
2018-11-13T16:38:05.465Z,2.33
2018-11-13T16:40:33.604Z,2.37
2018-11-13T16:43:01.252Z,2.10
2018-11-13T16:45:29.807Z,3.60
2018-11-13T16:47:58.145Z,3.20
2018-11-13T16:50:27.907Z,3.17
2018-11-13T16:52:55.679Z,3.13
2018-11-13T16:55:28.901Z,2.50
2018-11-13T16:57:57.329Z,2.17
2018-11-13T17:00:24.940Z,2.87
2018-11-13T17:02:52.475Z,1.97
2018-11-13T17:05:20.964Z,2.97
2018-11-13T17:07:48.739Z,2.50
2018-11-13T17:10:19.077Z,2.30
2018-11-13T17:12:47.106Z,2.80
2018-11-13T17:15:17.314Z,2.10
2018-11-13T17:17:45.508Z,2.50
2018-11-13T17:20:13.537Z,2.57
2018-11-13T17:22:41.649Z,2.93
2018-11-13T17:25:10.596Z,2.43
2018-11-13T17:27:39.331Z,2.30
2018-11-13T17:30:14.433Z,2.70
2018-11-13T17:32:42.754Z,2.30
2018-11-13T17:35:11.724Z,2.60
2018-11-13T17:37:39.436Z,3.10
2018-11-13T17:40:13.289Z,3.00
2018-11-13T17:42:41.451Z,2.57
2018-11-13T17:45:15.570Z,2.70
2018-11-13T17:47:43.370Z,2.20
2018-11-13T17:50:17.155Z,2.80
2018-11-13T17:52:45.585Z,2.83
2018-11-13T17:55:13.941Z,2.97
2018-11-13T17:57:42.697Z,2.80
2018-11-13T18:00:14.952Z,3.23
2018-11-13T18:02:43.508Z,2.50
2018-11-13T18:05:11.126Z,2.70
2018-11-13T18:07:38.649Z,2.20
2018-11-13T18:10:07.061Z,2.73
2018-11-13T18:12:37.933Z,2.10
2018-11-13T18:15:07.844Z,3.00
2018-11-13T18:17:35.323Z,2.30
2018-11-13T18:20:03.254Z,3.83
2018-11-13T18:22:30.794Z,2.63
2018-11-13T18:24:58.239Z,2.90
2018-11-13T18:27:25.817Z,2.93
2018-11-13T18:29:53.441Z,2.90
2018-11-13T18:32:20.974Z,2.70
2018-11-13T18:34:48.444Z,3.67
2018-11-13T18:37:16.028Z,3.07
2018-11-13T18:39:43.930Z,2.60
2018-11-13T18:42:11.501Z,3.10
2018-11-13T18:44:39.024Z,2.63
2018-11-13T18:47:06.662Z,2.70
2018-11-13T18:49:34.217Z,3.20
2018-11-13T18:52:01.670Z,3.10
2018-11-13T18:54:29.180Z,3.43
2018-11-13T18:56:56.720Z,3.33
2018-11-13T18:59:24.209Z,2.87
2018-11-13T19:01:52.523Z,3.20
2018-11-13T19:04:20.134Z,2.40
2018-11-13T19:06:47.596Z,3.10
2018-11-13T19:09:15.036Z,3.20
2018-11-13T19:11:42.643Z,3.30
2018-11-13T19:14:10.030Z,3.10
2018-11-13T19:16:37.568Z,3.27
2018-11-13T19:19:05.061Z,2.67
2018-11-13T19:21:32.723Z,2.43
2018-11-13T19:24:00.367Z,2.50
2018-11-13T19:26:27.748Z,2.93
2018-11-13T19:28:55.294Z,3.20
2018-11-13T19:31:22.786Z,2.53
2018-11-13T19:33:50.330Z,2.87
2018-11-13T19:36:17.959Z,2.57
2018-11-13T19:38:45.622Z,2.80
2018-11-13T19:41:13.614Z,2.90
2018-11-13T19:43:41.196Z,2.33
2018-11-13T19:46:08.676Z,2.97
2018-11-13T19:48:36.150Z,3.03
2018-11-13T19:51:03.766Z,3.63
2018-11-13T19:53:31.337Z,3.47
2018-11-13T19:55:59.294Z,3.30
2018-11-13T19:58:26.912Z,3.50
2018-11-13T20:00:54.430Z,3.50
2018-11-13T20:03:21.854Z,3.50
2018-11-13T20:05:49.423Z,3.03
2018-11-13T20:08:16.896Z,3.53
2018-11-13T20:10:44.502Z,3.13
2018-11-13T20:13:11.976Z,3.30
2018-11-13T20:15:39.982Z,3.67
2018-11-13T20:18:07.498Z,4.07
2018-11-13T20:20:35.195Z,3.33
2018-11-13T20:23:04.190Z,4.30
2018-11-13T20:25:32.902Z,3.43
2018-11-13T20:28:00.642Z,3.90
2018-11-13T20:30:29.833Z,3.40
2018-11-13T20:32:57.419Z,4.03
2018-11-13T20:35:25.001Z,3.27
2018-11-13T20:37:53.131Z,4.10
2018-11-13T20:40:24.913Z,3.83
2018-11-13T20:42:53.886Z,3.70
2018-11-13T20:45:21.432Z,4.10
2018-11-13T20:47:48.867Z,4.17
2018-11-13T20:50:17.582Z,3.30
2018-11-13T20:52:45.571Z,4.40
2018-11-13T20:55:13.262Z,4.70
2018-11-13T20:57:40.899Z,4.07
2018-11-13T21:00:13.371Z,4.93
2018-11-13T21:02:40.867Z,4.50
2018-11-13T21:05:08.484Z,4.60
2018-11-13T21:07:36.473Z,5.03
2018-11-13T21:10:05.811Z,4.60
2018-11-13T21:12:33.533Z,4.63
2018-11-13T21:15:00.987Z,5.37
2018-11-13T21:17:28.607Z,4.60
2018-11-13T21:19:55.987Z,5.20
2018-11-13T21:22:23.575Z,4.47
2018-11-13T21:24:51.044Z,5.20
2018-11-13T21:27:18.890Z,4.97
2018-11-13T21:29:46.052Z,4.83
2018-11-13T21:32:13.438Z,4.93
2018-11-13T21:34:41.069Z,4.73
2018-11-13T21:37:09.181Z,5.20
2018-11-13T21:39:36.507Z,5.60
2018-11-13T21:42:04.536Z,5.50
2018-11-13T21:44:32.010Z,4.70
2018-11-13T21:46:59.658Z,4.77
2018-11-13T21:49:27.069Z,5.43
2018-11-13T21:51:54.717Z,5.70
2018-11-13T21:54:22.154Z,5.80
2018-11-13T21:56:49.616Z,5.60
2018-11-13T21:59:17.165Z,6.03
2018-11-13T22:01:44.706Z,5.70
2018-11-13T22:04:12.265Z,5.10
2018-11-13T22:06:39.868Z,5.83
2018-11-13T22:09:09.382Z,6.73
2018-11-13T22:11:36.968Z,5.80
2018-11-13T22:14:04.974Z,6.00
2018-11-13T22:16:32.665Z,5.50
2018-11-13T22:19:00.110Z,5.77
2018-11-13T22:21:27.818Z,5.60
2018-11-13T22:23:55.250Z,5.50
2018-11-13T22:26:22.734Z,5.83
2018-11-13T22:28:50.475Z,5.73
2018-11-13T22:31:17.750Z,6.30
2018-11-13T22:33:45.222Z,5.97
2018-11-13T22:36:12.687Z,5.70
2018-11-13T22:38:40.092Z,6.00
2018-11-13T22:41:07.578Z,5.73
2018-11-13T22:43:35.135Z,6.87
2018-11-13T22:46:03.610Z,6.30
2018-11-13T22:48:30.984Z,4.90
2018-11-13T22:50:58.844Z,5.80
2018-11-13T22:53:25.862Z,5.20
2018-11-13T22:55:53.292Z,5.90
2018-11-13T22:58:20.853Z,5.83
2018-11-13T23:00:48.758Z,6.67
2018-11-13T23:03:18.110Z,6.47
2018-11-13T23:05:46.665Z,6.93
2018-11-13T23:08:16.525Z,8.33
2018-11-13T23:10:43.991Z,7.27
2018-11-13T23:13:11.461Z,7.83
2018-11-13T23:15:39.173Z,7.80
2018-11-13T23:18:07.025Z,7.07
2018-11-13T23:20:34.545Z,6.13
2018-11-13T23:23:02.009Z,6.70
2018-11-13T23:25:29.605Z,5.87
2018-11-13T23:27:57.129Z,6.47
2018-11-13T23:30:25.937Z,6.60
2018-11-13T23:32:54.156Z,6.33
2018-11-13T23:35:21.741Z,6.20
2018-11-13T23:37:50.291Z,6.80
2018-11-13T23:40:19.394Z,7.00
2018-11-13T23:42:47.401Z,6.97
2018-11-13T23:45:15.934Z,6.30
2018-11-13T23:47:43.896Z,6.53
2018-11-13T23:50:11.707Z,5.70
2018-11-13T23:52:39.642Z,6.47
2018-11-13T23:55:08.529Z,7.00
2018-11-13T23:57:35.966Z,7.03
